Schneifelwetter: Wetterstation Hallschlag, 537 m . NN
Wetterdaten: Donnerstag, 22.07.2010
Datum Zeit Temp. A. Feuchte A. Luftdruck Regen Wind Richtung Richtung Sonnenschein Helligkeit T Regen Taupunkt Windchill
22.07.2010 00:09 15,8 C 91 % 1011 hPa 0,0 l/m 11,1 km/h (2 Bft) W-SW22.5 245 0 min 0 lux 0,00 min 14,3 C 13,5 C
22.07.2010 00:24 15,9 C 92 % 1011 hPa 0,0 l/m 18,9 km/h (3 Bft) W-SW22.5 245 0 min 0 lux 0,00 min 14,6 C 11,2 C
22.07.2010 00:39 15,9 C 92 % 1011 hPa 0,0 l/m 20,3 km/h (4 Bft) SW45 220 0 min 0 lux 0,00 min 14,6 C 10,8 C
22.07.2010 00:54 15,8 C 92 % 1011 hPa 0,0 l/m 20,1 km/h (4 Bft) SW45 220 0 min 0 lux 0,00 min 14,5 C 10,8 C
22.07.2010 01:09 15,8 C 92 % 1011 hPa 0,0 l/m 21,8 km/h (4 Bft) SW45 230 0 min 0 lux 0,00 min 14,5 C 10,4 C
22.07.2010 01:24 15,7 C 92 % 1011 hPa 0,0 l/m 25,4 km/h (4 Bft) W-SW45 240 0 min 0 lux 0,00 min 14,4 C 9,5 C
22.07.2010 01:39 15,4 C 90 % 1011 hPa 4,5 l/m 25,0 km/h (4 Bft) SW45 220 0 min 0 lux 15,00 min 13,8 C 9,1 C
22.07.2010 01:54 15,0 C 90 % 1011 hPa 0,0 l/m 18,8 km/h (3 Bft) SW45 225 0 min 0 lux 0,00 min 13,4 C 10,1 C
22.07.2010 02:09 14,8 C 92 % 1012 hPa 0,0 l/m 17,0 km/h (3 Bft) SW45 225 0 min 0 lux 0,00 min 13,5 C 10,3 C
22.07.2010 02:24 14,8 C 91 % 1012 hPa 0,0 l/m 19,3 km/h (3 Bft) SW45 230 0 min 0 lux 0,00 min 13,3 C 9,7 C
22.07.2010 02:39 14,6 C 91 % 1011 hPa 0,0 l/m 19,5 km/h (3 Bft) SW45 225 0 min 0 lux 0,00 min 13,1 C 9,4 C
22.07.2010 02:54 14,4 C 92 % 1012 hPa 0,0 l/m 23,4 km/h (4 Bft) W-SW22.5 250 0 min 0 lux 0,00 min 13,1 C 8,1 C
22.07.2010 03:09 14,3 C 92 % 1012 hPa 0,0 l/m 23,6 km/h (4 Bft) W-SW45 245 0 min 0 lux 0,00 min 13,0 C 8,0 C
22.07.2010 03:24 14,2 C 92 % 1012 hPa 0,0 l/m 17,3 km/h (3 Bft) SW22.5 230 0 min 0 lux 0,00 min 12,9 C 9,5 C
22.07.2010 03:39 14,2 C 92 % 1012 hPa 0,0 l/m 16,6 km/h (3 Bft) W-SW45 250 0 min 0 lux 0,00 min 12,9 C 9,7 C
22.07.2010 03:54 14,2 C 92 % 1012 hPa 0,0 l/m 15,1 km/h (3 Bft) SW22.5 235 0 min 0 lux 0,00 min 12,9 C 10,2 C
22.07.2010 04:09 14,2 C 92 % 1012 hPa 0,0 l/m 10,5 km/h (2 Bft) W-SW22.5 250 0 min 0 lux 0,00 min 12,9 C 12,0 C
22.07.2010 04:24 14,2 C 92 % 1012 hPa 0,0 l/m 11,9 km/h (2 Bft) W-SW 250 0 min 0 lux 0,00 min 12,9 C 11,4 C
22.07.2010 04:39 14,1 C 93 % 1012 hPa 0,0 l/m 1,3 km/h (1 Bft) W-SW 250 0 min 0 lux 0,00 min 13,0 C 14,1 C
22.07.2010 04:54 14,1 C 93 % 1012 hPa 0,0 l/m 6,9 km/h (2 Bft) W-SW 250 0 min 0 lux 0,00 min 13,0 C 13,8 C
22.07.2010 05:09 14,2 C 92 % 1012 hPa 0,0 l/m 6,8 km/h (2 Bft) W-SW 250 0 min 0 lux 0,00 min 12,9 C 14,0 C
22.07.2010 05:24 14,2 C 92 % 1012 hPa 0,0 l/m 8,9 km/h (2 Bft) W-SW 250 0 min 0 lux 0,00 min 12,9 C 12,8 C
22.07.2010 05:39 14,2 C 92 % 1012 hPa 0,0 l/m 7,1 km/h (2 Bft) W-SW 250 0 min 53 lux 0,00 min 12,9 C 13,8 C
22.07.2010 05:54 14,2 C 92 % 1012 hPa 0,0 l/m 0,0 km/h (0 Bft) W-SW 250 0 min 202 lux 0,00 min 12,9 C 14,2 C
22.07.2010 06:09 14,2 C 92 % 1012 hPa 0,0 l/m 0,0 km/h (0 Bft) W-SW 250 0 min 465 lux 0,00 min 12,9 C 14,2 C
22.07.2010 06:24 14,1 C 92 % 1012 hPa 0,0 l/m 0,0 km/h (0 Bft) W-SW 250 0 min 1,36 klux 0,00 min 12,8 C 14,1 C
22.07.2010 06:39 14,1 C 92 % 1012 hPa 0,0 l/m 0,0 km/h (0 Bft) W-SW 250 0 min 1,69 klux 0,00 min 12,8 C 14,1 C
22.07.2010 06:54 14,3 C 92 % 1012 hPa 0,0 l/m 0,0 km/h (0 Bft) W-SW 250 0 min 1,18 klux 0,00 min 13,0 C 14,3 C
22.07.2010 07:09 14,4 C 92 % 1012 hPa 0,0 l/m 0,0 km/h (0 Bft) W-SW 250 0 min 5,15 klux 0,00 min 13,1 C 14,4 C
22.07.2010 07:24 15,1 C 92 % 1012 hPa 0,0 l/m 0,0 km/h (0 Bft) W-SW 250 0 min 9,6 klux 0,00 min 13,8 C 15,1 C
22.07.2010 07:39 15,4 C 92 % 1012 hPa 0,0 l/m 0,0 km/h (0 Bft) W-SW 250 0 min 8,28 klux 0,00 min 14,1 C 15,4 C
22.07.2010 08:00 16,0 C 91 % 1012 hPa 0,0 l/m 0,0 km/h (0 Bft) W-SW 250 0 min 12,5 klux 0,00 min 14,5 C 16,0 C
22.07.2010 08:15 16,4 C 89 % 1012 hPa 0,0 l/m 0,0 km/h (0 Bft) W-SW 250 0 min 10,0 klux 0,00 min 14,6 C 16,4 C
22.07.2010 08:30 16,4 C 88 % 1013 hPa 0,0 l/m 0,0 km/h (0 Bft) W-SW 250 0 min 9,0 klux 0,00 min 14,4 C 16,4 C
22.07.2010 08:45 16,2 C 88 % 1013 hPa 0,0 l/m 8,4 km/h (2 Bft) S45 180 0 min 11,0 klux 0,00 min 14,2 C 15,2 C
22.07.2010 09:00 16,0 C 88 % 1013 hPa 0,0 l/m 11,9 km/h (2 Bft) S 170 0 min 9,00 klux 0,00 min 14,0 C 13,5 C
22.07.2010 09:15 16,1 C 88 % 1013 hPa 0,0 l/m 10,2 km/h (2 Bft) S 170 0 min 12,1 klux 0,00 min 14,1 C 14,2 C
22.07.2010 09:30 16,0 C 88 % 1013 hPa 0,0 l/m 14,2 km/h (3 Bft) S-SO 150 0 min 9,9 klux 0,00 min 14,0 C 12,7 C
22.07.2010 09:45 16,2 C 88 % 1013 hPa 0,0 l/m 9,6 km/h (2 Bft) S 185 0 min 17,0 klux 0,00 min 14,2 C 14,6 C
22.07.2010 10:00 16,4 C 88 % 1013 hPa 0,0 l/m 13,8 km/h (3 Bft) S-SO 165 0 min 15,8 klux 0,00 min 14,4 C 13,3 C
22.07.2010 10:15 16,4 C 87 % 1013 hPa 0,0 l/m 14,8 km/h (3 Bft) SW45 235 0 min 11,2 klux 0,00 min 14,2 C 12,9 C
22.07.2010 10:30 16,2 C 88 % 1013 hPa 0,0 l/m 9,0 km/h (2 Bft) S 170 0 min 8,25 klux 0,00 min 14,2 C 14,9 C
22.07.2010 10:45 16,0 C 89 % 1013 hPa 0,0 l/m 9,6 km/h (2 Bft) S 190 0 min 8,94 klux 0,00 min 14,2 C 14,4 C
22.07.2010 11:00 16,0 C 90 % 1014 hPa 0,0 l/m 9,4 km/h (2 Bft) S-SW 200 0 min 11,4 klux 0,00 min 14,4 C 14,5 C
22.07.2010 11:15 16,1 C 91 % 1014 hPa 0,3 l/m 9,7 km/h (2 Bft) S-SW22.5 195 0 min 12,0 klux 15,00 min 14,6 C 14,5 C
22.07.2010 11:30 16,3 C 91 % 1013 hPa 0,0 l/m 6,7 km/h (2 Bft) S 180 0 min 18,8 klux 0,00 min 14,8 C 16,2 C
22.07.2010 11:45 16,8 C 90 % 1014 hPa 0,0 l/m 8,4 km/h (2 Bft) S 180 0 min 29,4 klux 0,00 min 15,1 C 15,8 C
22.07.2010 12:00 16,9 C 88 % 1014 hPa 0,0 l/m 13,1 km/h (3 Bft) S-SW45 205 0 min 12,3 klux 0,00 min 14,9 C 14,1 C
22.07.2010 12:15 16,8 C 88 % 1014 hPa 0,0 l/m 13,8 km/h (3 Bft) S-SW22.5 210 0 min 15,2 klux 0,00 min 14,8 C 13,7 C
22.07.2010 12:30 16,6 C 88 % 1014 hPa 0,0 l/m 11,5 km/h (2 Bft) S-SW22.5 195 0 min 11,5 klux 0,00 min 14,6 C 14,3 C
22.07.2010 12:45 16,6 C 88 % 1014 hPa 0,0 l/m 12,6 km/h (3 Bft) S-SW22.5 210 0 min 18,8 klux 0,00 min 14,6 C 13,9 C
22.07.2010 13:00 16,8 C 89 % 1014 hPa 0,0 l/m 18,6 km/h (3 Bft) S-SW67.5 210 0 min 19,7 klux 0,00 min 15,0 C 12,4 C
22.07.2010 13:15 17,1 C 90 % 1014 hPa 0,0 l/m 10,6 km/h (2 Bft) SW22.5 215 0 min 28,7 klux 0,00 min 15,4 C 15,2 C
22.07.2010 13:30 18,0 C 88 % 1014 hPa 0,0 l/m 7,8 km/h (2 Bft) S-SW22.5 210 0 min 27,4 klux 0,00 min 16,0 C 17,3 C
22.07.2010 13:45 17,5 C 87 % 1014 hPa 0,0 l/m 12,0 km/h (2 Bft) SW22.5 235 0 min 11,4 klux 0,00 min 15,3 C 15,2 C
22.07.2010 14:01 17,5 C 87 % 1014 hPa 0,0 l/m 12,4 km/h (3 Bft) S-SW22.5 200 0 min 21,5 klux 0,00 min 15,3 C 15,0 C
22.07.2010 14:15 17,9 C 88 % 1014 hPa 0,0 l/m 11,6 km/h (2 Bft) S-SW45 195 0 min 35,7 klux 0,00 min 15,9 C 15,7 C
22.07.2010 14:30 19,0 C 85 % 1014 hPa 0,0 l/m 15,3 km/h (3 Bft) S-SW45 195 0 min 45,8 klux 0,00 min 16,4 C 16,0 C
22.07.2010 14:45 19,0 C 83 % 1014 hPa 0,0 l/m 15,6 km/h (3 Bft) S-SW45 195 0 min 29,7 klux 0,00 min 16,0 C 15,9 C
22.07.2010 15:00 19,3 C 83 % 1014 hPa 0,0 l/m 17,3 km/h (3 Bft) W-SW22.5 245 0 min 47,5 klux 0,00 min 16,3 C 15,9 C
22.07.2010 15:15 20,0 C 80 % 1014 hPa 0,0 l/m 20,4 km/h (4 Bft) W-SW22.5 255 0 min 48,4 klux 0,00 min 16,4 C 16,1 C
22.07.2010 15:30 20,4 C 78 % 1014 hPa 0,3 l/m 16,4 km/h (3 Bft) SW45 230 0 min 45,5 klux 15,00 min 16,4 C 17,4 C
22.07.2010 15:45 20,2 C 76 % 1014 hPa 0,0 l/m 20,0 km/h (4 Bft) S-SW45 200 0 min 39,0 klux 0,00 min 15,8 C 16,5 C
22.07.2010 16:00 19,7 C 76 % 1014 hPa 0,0 l/m 17,1 km/h (3 Bft) S-SW45 205 0 min 25,9 klux 0,00 min 15,3 C 16,4 C
22.07.2010 16:15 19,3 C 78 % 1014 hPa 0,0 l/m 17,6 km/h (3 Bft) SW45 220 0 min 20,9 klux 0,00 min 15,4 C 15,8 C
22.07.2010 16:30 19,4 C 79 % 1014 hPa 0,0 l/m 16,8 km/h (3 Bft) SW45 215 15 min 60,4 klux 0,00 min 15,7 C 16,1 C
22.07.2010 16:45 20,6 C 76 % 1014 hPa 0,0 l/m 23,1 km/h (4 Bft) S-SW45 205 15 min 72,8 klux 0,00 min 16,2 C 16,5 C
22.07.2010 17:00 20,6 C 75 % 1014 hPa 0,0 l/m 17,5 km/h (3 Bft) SW45 230 0 min 34,6 klux 0,00 min 16,0 C 17,4 C
22.07.2010 17:16 20,8 C 74 % 1014 hPa 0,0 l/m 12,2 km/h (2 Bft) S-SW22.5 205 0 min 35,8 klux 0,00 min 16,0 C 18,9 C
22.07.2010 17:30 21,0 C 73 % 1014 hPa 0,0 l/m 13,6 km/h (3 Bft) SW22.5 215 14 min 57,6 klux 0,00 min 16,0 C 18,8 C
22.07.2010 17:45 20,8 C 72 % 1014 hPa 0,0 l/m 14,7 km/h (3 Bft) S-SW45 195 0 min 46,2 klux 0,00 min 15,6 C 18,3 C
22.07.2010 18:00 20,1 C 73 % 1014 hPa 0,0 l/m 17,0 km/h (3 Bft) W-SW45 255 0 min 14,1 klux 0,00 min 15,1 C 16,9 C
22.07.2010 18:15 19,5 C 73 % 1014 hPa 0,0 l/m 19,8 km/h (3 Bft) W-SW45 250 0 min 9,2 klux 0,00 min 14,5 C 15,6 C
22.07.2010 18:30 19,2 C 74 % 1014 hPa 0,0 l/m 14,3 km/h (3 Bft) W-SW 250 0 min 12,0 klux 0,00 min 14,4 C 16,5 C
22.07.2010 18:45 19,2 C 75 % 1014 hPa 0,0 l/m 13,8 km/h (3 Bft) W-SW45 245 0 min 22,7 klux 0,00 min 14,7 C 16,6 C
22.07.2010 19:00 19,5 C 74 % 1014 hPa 0,0 l/m 23,1 km/h (4 Bft) W22.5 260 0 min 20,5 klux 0,00 min 14,7 C 15,0 C
22.07.2010 19:15 19,1 C 73 % 1015 hPa 0,0 l/m 17,4 km/h (3 Bft) W-SW22.5 255 0 min 12,4 klux 0,00 min 14,1 C 15,6 C
22.07.2010 19:30 18,7 C 74 % 1014 hPa 0,0 l/m 13,3 km/h (3 Bft) SW45 225 0 min 12,3 klux 0,00 min 14,0 C 16,1 C
22.07.2010 19:45 18,8 C 74 % 1014 hPa 0,0 l/m 11,3 km/h (2 Bft) W-SW 240 0 min 15,6 klux 0,00 min 14,1 C 16,9 C
22.07.2010 20:00 18,6 C 74 % 1015 hPa 0,0 l/m 9,8 km/h (2 Bft) SW 225 0 min 11,4 klux 0,00 min 13,9 C 17,2 C
22.07.2010 20:15 18,0 C 75 % 1015 hPa 0,0 l/m 7,4 km/h (2 Bft) SW 225 0 min 9,1 klux 0,00 min 13,5 C 17,5 C
22.07.2010 20:30 17,8 C 77 % 1015 hPa 0,0 l/m 0,4 km/h (0 Bft) SW 225 0 min 6,27 klux 0,00 min 13,7 C 17,8 C
22.07.2010 20:45 17,6 C 77 % 1014 hPa 0,0 l/m 4,4 km/h (1 Bft) SW 220 0 min 4,45 klux 0,00 min 13,5 C 17,6 C
22.07.2010 21:00 17,2 C 78 % 1015 hPa 0,0 l/m 4,1 km/h (1 Bft) SW 220 0 min 3,52 klux 0,00 min 13,3 C 17,2 C
22.07.2010 21:15 16,8 C 78 % 1015 hPa 0,0 l/m 4,0 km/h (1 Bft) SW 220 0 min 3,45 klux 0,00 min 12,9 C 16,8 C
22.07.2010 21:30 16,4 C 78 % 1015 hPa 0,0 l/m 4,0 km/h (1 Bft) SW 220 0 min 1,64 klux 0,00 min 12,6 C 16,4 C
22.07.2010 21:45 15,9 C 79 % 1015 hPa 0,0 l/m 0,0 km/h (0 Bft) SW 225 0 min 532 lux 0,00 min 12,3 C 15,9 C
22.07.2010 22:00 15,4 C 80 % 1015 hPa 0,0 l/m 0,0 km/h (0 Bft) SW 225 0 min 79 lux 0,00 min 12,0 C 15,4 C
22.07.2010 22:15 15,0 C 81 % 1015 hPa 0,0 l/m 0,0 km/h (0 Bft) SW 225 0 min 10 lux 0,00 min 11,8 C 15,0 C
22.07.2010 22:30 14,9 C 83 % 1016 hPa 0,0 l/m 0,0 km/h (0 Bft) SW 225 0 min 0 lux 0,00 min 12,0 C 14,9 C
22.07.2010 22:45 14,5 C 83 % 1016 hPa 0,0 l/m 0,0 km/h (0 Bft) SW 225 0 min 0 lux 0,00 min 11,6 C 14,5 C
22.07.2010 23:00 14,0 C 84 % 1016 hPa 0,0 l/m 0,0 km/h (0 Bft) SW 225 0 min 0 lux 0,00 min 11,3 C 14,0 C
22.07.2010 23:15 13,3 C 85 % 1016 hPa 0,0 l/m 0,0 km/h (0 Bft) SW 225 0 min 0 lux 0,00 min 10,8 C 13,3 C
22.07.2010 23:30 13,0 C 86 % 1016 hPa 0,0 l/m 0,0 km/h (0 Bft) SW 225 0 min 0 lux 0,00 min 10,7 C 13,0 C
22.07.2010 23:45 13,1 C 86 % 1016 hPa 0,0 l/m 0,0 km/h (0 Bft) SW 225 0 min 0 lux 0,00 min 10,8 C 13,1 C
_ Min-Zeit 23:30 17:45 00:09 - 05:54 - - - - - 23:30 03:09
Minimum _ 13,0 C 72 % 1011 hPa - 0,0 km/h (0 Bft) - - - - - 10,7 C 8,0 C
_ Max-Zeit 17:30 04:39 22:30 01:39 01:24 - - 16:30 16:45 01:39 15:15 17:16
Maximum _ 21,0 C 93 % 1016 hPa 4,5 l/m 25,4 km/h
W-SW (4 Bft)
- - 15 min 72,8 klux 15,00 min 16,4 C 18,9 C
Durchschnitt _ 16,6 C 85 % 1014 hPa #5,1 l/m 10,8 km/h (2 Bft) SW - #44 min. 12,7 klux #45 min. 14,0 C 14,4 C